sensor_id;sensor_type;location;lat;lon;timestamp;P1;P2;P0
44871;PMS7003;30602;51.060;17.226;2023-03-04T00:00:23;60;46;26
44871;PMS7003;30602;51.060;17.226;2023-03-04T00:04:51;39;33;19
44871;PMS7003;30602;51.060;17.226;2023-03-04T00:08:15;62;49;27
44871;PMS7003;30602;51.060;17.226;2023-03-04T00:12:00;66;53;29
44871;PMS7003;30602;51.060;17.226;2023-03-04T00:15:43;56;39;20
44871;PMS7003;30602;51.060;17.226;2023-03-04T00:19:09;45;38;19
44871;PMS7003;30602;51.060;17.226;2023-03-04T00:23:12;49;41;21
44871;PMS7003;30602;51.060;17.226;2023-03-04T00:26:47;38;28;17
44871;PMS7003;30602;51.060;17.226;2023-03-04T00:30:34;31;22;14
44871;PMS7003;30602;51.060;17.226;2023-03-04T00:34:00;36;30;19
44871;PMS7003;30602;51.060;17.226;2023-03-04T00:37:55;27;25;13
44871;PMS7003;30602;51.060;17.226;2023-03-04T00:42:00;28;24;17
44871;PMS7003;30602;51.060;17.226;2023-03-04T00:45:34;34;27;14
44871;PMS7003;30602;51.060;17.226;2023-03-04T00:49:23;34;28;15
44871;PMS7003;30602;51.060;17.226;2023-03-04T00:53:15;26;21;13
44871;PMS7003;30602;51.060;17.226;2023-03-04T00:56:37;26;19;12
44871;PMS7003;30602;51.060;17.226;2023-03-04T01:00:16;28;22;13
44871;PMS7003;30602;51.060;17.226;2023-03-04T01:04:27;32;22;13
44871;PMS7003;30602;51.060;17.226;2023-03-04T01:08:21;27;21;14
44871;PMS7003;30602;51.060;17.226;2023-03-04T01:11:48;25;22;12
44871;PMS7003;30602;51.060;17.226;2023-03-04T01:15:48;20;17;11
44871;PMS7003;30602;51.060;17.226;2023-03-04T01:19:32;24;20;12
44871;PMS7003;30602;51.060;17.226;2023-03-04T01:23:10;23;21;12
44871;PMS7003;30602;51.060;17.226;2023-03-04T01:26:35;23;21;13
44871;PMS7003;30602;51.060;17.226;2023-03-04T01:30:08;24;21;13
44871;PMS7003;30602;51.060;17.226;2023-03-04T01:34:02;24;21;12
44871;PMS7003;30602;51.060;17.226;2023-03-04T01:37:44;41;35;18
44871;PMS7003;30602;51.060;17.226;2023-03-04T01:42:08;45;37;20
44871;PMS7003;30602;51.060;17.226;2023-03-04T01:46:11;41;32;17
44871;PMS7003;30602;51.060;17.226;2023-03-04T01:49:54;45;39;21
44871;PMS7003;30602;51.060;17.226;2023-03-04T01:53:20;45;36;19
44871;PMS7003;30602;51.060;17.226;2023-03-04T01:57:19;23;21;13
44871;PMS7003;30602;51.060;17.226;2023-03-04T02:01:10;48;35;21
44871;PMS7003;30602;51.060;17.226;2023-03-04T02:04:56;30;26;15
44871;PMS7003;30602;51.060;17.226;2023-03-04T02:08:38;28;24;14
44871;PMS7003;30602;51.060;17.226;2023-03-04T02:12:08;31;25;13
44871;PMS7003;30602;51.060;17.226;2023-03-04T02:16:01;26;23;14
44871;PMS7003;30602;51.060;17.226;2023-03-04T02:20:22;24;21;12
44871;PMS7003;30602;51.060;17.226;2023-03-04T02:28:30;39;31;17
44871;PMS7003;30602;51.060;17.226;2023-03-04T02:32:11;30;24;13
44871;PMS7003;30602;51.060;17.226;2023-03-04T02:36:29;30;25;12
44871;PMS7003;30602;51.060;17.226;2023-03-04T02:40:17;26;22;14
44871;PMS7003;30602;51.060;17.226;2023-03-04T02:47:44;38;28;16
44871;PMS7003;30602;51.060;17.226;2023-03-04T02:51:59;32;25;14
44871;PMS7003;30602;51.060;17.226;2023-03-04T02:55:56;23;20;13
44871;PMS7003;30602;51.060;17.226;2023-03-04T02:59:31;25;20;12
44871;PMS7003;30602;51.060;17.226;2023-03-04T03:03:12;31;21;15
44871;PMS7003;30602;51.060;17.226;2023-03-04T03:06:59;26;20;12
44871;PMS7003;30602;51.060;17.226;2023-03-04T03:10:48;25;20;13
44871;PMS7003;30602;51.060;17.226;2023-03-04T03:14:37;23;22;13
44871;PMS7003;30602;51.060;17.226;2023-03-04T03:18:17;23;20;14
44871;PMS7003;30602;51.060;17.226;2023-03-04T03:22:01;22;21;13
44871;PMS7003;30602;51.060;17.226;2023-03-04T03:26:17;20;18;11
44871;PMS7003;30602;51.060;17.226;2023-03-04T03:30:47;28;22;13
44871;PMS7003;30602;51.060;17.226;2023-03-04T03:34:28;29;21;13
44871;PMS7003;30602;51.060;17.226;2023-03-04T03:37:52;27;23;12
44871;PMS7003;30602;51.060;17.226;2023-03-04T03:41:47;31;19;12
44871;PMS7003;30602;51.060;17.226;2023-03-04T03:45:33;28;23;14
44871;PMS7003;30602;51.060;17.226;2023-03-04T03:50:05;24;21;13
44871;PMS7003;30602;51.060;17.226;2023-03-04T03:53:37;27;24;14
44871;PMS7003;30602;51.060;17.226;2023-03-04T03:57:18;26;20;12
44871;PMS7003;30602;51.060;17.226;2023-03-04T04:01:00;22;19;12
44871;PMS7003;30602;51.060;17.226;2023-03-04T04:04:41;28;26;15
44871;PMS7003;30602;51.060;17.226;2023-03-04T04:12:34;30;25;14
44871;PMS7003;30602;51.060;17.226;2023-03-04T04:16:05;32;25;14
44871;PMS7003;30602;51.060;17.226;2023-03-04T04:20:15;37;29;14
44871;PMS7003;30602;51.060;17.226;2023-03-04T04:24:00;32;25;14
44871;PMS7003;30602;51.060;17.226;2023-03-04T04:27:51;29;25;13
44871;PMS7003;30602;51.060;17.226;2023-03-04T04:31:31;31;21;13
44871;PMS7003;30602;51.060;17.226;2023-03-04T04:35:36;34;31;15
44871;PMS7003;30602;51.060;17.226;2023-03-04T04:39:18;26;19;13
44871;PMS7003;30602;51.060;17.226;2023-03-04T04:43:09;25;21;13
44871;PMS7003;30602;51.060;17.226;2023-03-04T04:46:53;30;26;13
44871;PMS7003;30602;51.060;17.226;2023-03-04T04:50:53;25;22;13
44871;PMS7003;30602;51.060;17.226;2023-03-04T04:54:41;28;22;14
44871;PMS7003;30602;51.060;17.226;2023-03-04T04:58:34;26;21;13
44871;PMS7003;30602;51.060;17.226;2023-03-04T05:02:35;31;25;13
44871;PMS7003;30602;51.060;17.226;2023-03-04T05:05:59;27;22;15
44871;PMS7003;30602;51.060;17.226;2023-03-04T05:09:34;33;28;16
44871;PMS7003;30602;51.060;17.226;2023-03-04T05:13:12;33;27;17
44871;PMS7003;30602;51.060;17.226;2023-03-04T05:16:56;29;25;16
44871;PMS7003;30602;51.060;17.226;2023-03-04T05:20:58;36;29;17
44871;PMS7003;30602;51.060;17.226;2023-03-04T05:24:26;32;25;15
44871;PMS7003;30602;51.060;17.226;2023-03-04T05:28:07;30;24;15
44871;PMS7003;30602;51.060;17.226;2023-03-04T05:32:43;27;23;15
44871;PMS7003;30602;51.060;17.226;2023-03-04T05:36:47;25;19;14
44871;PMS7003;30602;51.060;17.226;2023-03-04T05:40:33;27;22;13
44871;PMS7003;30602;51.060;17.226;2023-03-04T05:43:59;27;23;13
44871;PMS7003;30602;51.060;17.226;2023-03-04T05:47:22;22;18;12
44871;PMS7003;30602;51.060;17.226;2023-03-04T05:50:43;25;21;15
44871;PMS7003;30602;51.060;17.226;2023-03-04T05:54:40;33;26;13
44871;PMS7003;30602;51.060;17.226;2023-03-04T05:58:05;28;24;14
44871;PMS7003;30602;51.060;17.226;2023-03-04T06:01:53;23;19;13
44871;PMS7003;30602;51.060;17.226;2023-03-04T06:05:47;31;24;14
44871;PMS7003;30602;51.060;17.226;2023-03-04T06:09:57;30;23;13
44871;PMS7003;30602;51.060;17.226;2023-03-04T06:14:04;28;22;14
44871;PMS7003;30602;51.060;17.226;2023-03-04T06:17:43;28;25;16
44871;PMS7003;30602;51.060;17.226;2023-03-04T06:22:08;37;31;17
44871;PMS7003;30602;51.060;17.226;2023-03-04T06:25:42;32;24;12
44871;PMS7003;30602;51.060;17.226;2023-03-04T06:29:23;29;24;15
44871;PMS7003;30602;51.060;17.226;2023-03-04T06:33:17;38;26;16
44871;PMS7003;30602;51.060;17.226;2023-03-04T06:37:13;33;27;15
44871;PMS7003;30602;51.060;17.226;2023-03-04T06:40:42;34;30;17
44871;PMS7003;30602;51.060;17.226;2023-03-04T06:44:07;36;27;15
44871;PMS7003;30602;51.060;17.226;2023-03-04T06:47:35;41;32;17
44871;PMS7003;30602;51.060;17.226;2023-03-04T06:51:33;33;27;17
44871;PMS7003;30602;51.060;17.226;2023-03-04T06:55:10;32;26;15
44871;PMS7003;30602;51.060;17.226;2023-03-04T06:58:54;23;21;13
44871;PMS7003;30602;51.060;17.226;2023-03-04T07:02:32;38;30;16
44871;PMS7003;30602;51.060;17.226;2023-03-04T07:06:15;30;25;15
44871;PMS7003;30602;51.060;17.226;2023-03-04T07:09:59;31;26;17
44871;PMS7003;30602;51.060;17.226;2023-03-04T07:13:20;24;22;14
44871;PMS7003;30602;51.060;17.226;2023-03-04T07:16:42;29;25;13
44871;PMS7003;30602;51.060;17.226;2023-03-04T07:20:08;35;25;15
44871;PMS7003;30602;51.060;17.226;2023-03-04T07:23:48;26;21;15
44871;PMS7003;30602;51.060;17.226;2023-03-04T07:27:12;21;16;12
44871;PMS7003;30602;51.060;17.226;2023-03-04T07:30:36;21;20;13
44871;PMS7003;30602;51.060;17.226;2023-03-04T07:33:58;21;18;13
44871;PMS7003;30602;51.060;17.226;2023-03-04T07:37:52;24;22;15
44871;PMS7003;30602;51.060;17.226;2023-03-04T07:41:16;21;17;10
44871;PMS7003;30602;51.060;17.226;2023-03-04T07:44:59;22;18;11
44871;PMS7003;30602;51.060;17.226;2023-03-04T07:48:23;19;16;12
44871;PMS7003;30602;51.060;17.226;2023-03-04T07:51:56;14;14;9
44871;PMS7003;30602;51.060;17.226;2023-03-04T07:55:28;24;16;11
44871;PMS7003;30602;51.060;17.226;2023-03-04T07:58:53;25;19;10
44871;PMS7003;30602;51.060;17.226;2023-03-04T08:02:15;21;17;9
44871;PMS7003;30602;51.060;17.226;2023-03-04T08:13:19;26;19;12
44871;PMS7003;30602;51.060;17.226;2023-03-04T08:17:43;20;16;12
44871;PMS7003;30602;51.060;17.226;2023-03-04T08:21:09;23;18;12
44871;PMS7003;30602;51.060;17.226;2023-03-04T08:24:33;26;22;13
44871;PMS7003;30602;51.060;17.226;2023-03-04T08:28:26;18;14;10
44871;PMS7003;30602;51.060;17.226;2023-03-04T08:32:19;30;24;16
44871;PMS7003;30602;51.060;17.226;2023-03-04T08:36:41;39;31;15
44871;PMS7003;30602;51.060;17.226;2023-03-04T08:40:26;29;23;13
44871;PMS7003;30602;51.060;17.226;2023-03-04T08:44:24;45;38;23
44871;PMS7003;30602;51.060;17.226;2023-03-04T08:47:57;32;30;17
44871;PMS7003;30602;51.060;17.226;2023-03-04T08:51:26;38;32;17
44871;PMS7003;30602;51.060;17.226;2023-03-04T08:55:33;29;25;15
44871;PMS7003;30602;51.060;17.226;2023-03-04T08:59:33;32;27;15
44871;PMS7003;30602;51.060;17.226;2023-03-04T09:02:56;27;23;14
44871;PMS7003;30602;51.060;17.226;2023-03-04T09:06:33;29;21;15
44871;PMS7003;30602;51.060;17.226;2023-03-04T09:09:56;24;20;12
44871;PMS7003;30602;51.060;17.226;2023-03-04T09:17:53;26;23;17
44871;PMS7003;30602;51.060;17.226;2023-03-04T09:21:17;18;14;9
44871;PMS7003;30602;51.060;17.226;2023-03-04T09:24:59;22;19;11
44871;PMS7003;30602;51.060;17.226;2023-03-04T09:28:53;18;16;11
44871;PMS7003;30602;51.060;17.226;2023-03-04T09:32:35;16;15;11
44871;PMS7003;30602;51.060;17.226;2023-03-04T09:36:16;17;14;10
44871;PMS7003;30602;51.060;17.226;2023-03-04T09:39:58;19;18;11
44871;PMS7003;30602;51.060;17.226;2023-03-04T09:47:40;14;13;9
44871;PMS7003;30602;51.060;17.226;2023-03-04T09:55:39;17;12;9
44871;PMS7003;30602;51.060;17.226;2023-03-04T10:03:22;20;15;9
44871;PMS7003;30602;51.060;17.226;2023-03-04T10:06:50;21;17;11
44871;PMS7003;30602;51.060;17.226;2023-03-04T10:10:16;16;13;8
44871;PMS7003;30602;51.060;17.226;2023-03-04T10:13:48;14;11;9
44871;PMS7003;30602;51.060;17.226;2023-03-04T10:24:56;11;9;7
44871;PMS7003;30602;51.060;17.226;2023-03-04T10:28:41;17;15;10
44871;PMS7003;30602;51.060;17.226;2023-03-04T10:32:17;18;15;9
44871;PMS7003;30602;51.060;17.226;2023-03-04T10:40:24;24;15;10
44871;PMS7003;30602;51.060;17.226;2023-03-04T10:48:08;32;29;20
44871;PMS7003;30602;51.060;17.226;2023-03-04T10:55:15;22;20;13
44871;PMS7003;30602;51.060;17.226;2023-03-04T11:02:53;17;12;8
44871;PMS7003;30602;51.060;17.226;2023-03-04T11:06:24;14;12;9
44871;PMS7003;30602;51.060;17.226;2023-03-04T11:10:23;17;13;9
44871;PMS7003;30602;51.060;17.226;2023-03-04T11:14:27;22;16;10
44871;PMS7003;30602;51.060;17.226;2023-03-04T11:17:59;16;13;10
44871;PMS7003;30602;51.060;17.226;2023-03-04T11:22:19;12;10;7
44871;PMS7003;30602;51.060;17.226;2023-03-04T11:25:46;18;13;9
44871;PMS7003;30602;51.060;17.226;2023-03-04T11:29:33;14;11;6
44871;PMS7003;30602;51.060;17.226;2023-03-04T11:40:37;15;12;9
44871;PMS7003;30602;51.060;17.226;2023-03-04T11:44:27;18;14;9
44871;PMS7003;30602;51.060;17.226;2023-03-04T12:27:20;13;11;6
44871;PMS7003;30602;51.060;17.226;2023-03-04T12:31:17;13;10;7
44871;PMS7003;30602;51.060;17.226;2023-03-04T12:35:34;12;11;8
44871;PMS7003;30602;51.060;17.226;2023-03-04T12:55:14;15;14;10
44871;PMS7003;30602;51.060;17.226;2023-03-04T12:59:01;12;12;9
44871;PMS7003;30602;51.060;17.226;2023-03-04T13:06:49;10;10;8
44871;PMS7003;30602;51.060;17.226;2023-03-04T13:23:20;13;12;8
44871;PMS7003;30602;51.060;17.226;2023-03-04T13:28:01;14;13;9
44871;PMS7003;30602;51.060;17.226;2023-03-04T13:31:27;23;22;14
44871;PMS7003;30602;51.060;17.226;2023-03-04T13:34:53;19;18;9
44871;PMS7003;30602;51.060;17.226;2023-03-04T13:38:38;20;18;11
44871;PMS7003;30602;51.060;17.226;2023-03-04T13:53:53;37;34;20
44871;PMS7003;30602;51.060;17.226;2023-03-04T13:57:51;36;29;19
44871;PMS7003;30602;51.060;17.226;2023-03-04T14:01:50;43;34;18
44871;PMS7003;30602;51.060;17.226;2023-03-04T14:05:21;70;51;25
44871;PMS7003;30602;51.060;17.226;2023-03-04T14:09:11;88;65;34
44871;PMS7003;30602;51.060;17.226;2023-03-04T14:13:17;56;43;23
44871;PMS7003;30602;51.060;17.226;2023-03-04T14:17:04;47;39;21
44871;PMS7003;30602;51.060;17.226;2023-03-04T14:20:36;47;37;19
44871;PMS7003;30602;51.060;17.226;2023-03-04T14:28:40;21;18;12
44871;PMS7003;30602;51.060;17.226;2023-03-04T14:32:07;27;23;13
44871;PMS7003;30602;51.060;17.226;2023-03-04T14:43:59;13;10;7
44871;PMS7003;30602;51.060;17.226;2023-03-04T14:47:56;6;5;3
44871;PMS7003;30602;51.060;17.226;2023-03-04T14:51:45;20;14;9
44871;PMS7003;30602;51.060;17.226;2023-03-04T15:02:40;19;17;11
44871;PMS7003;30602;51.060;17.226;2023-03-04T15:06:28;58;46;30
44871;PMS7003;30602;51.060;17.226;2023-03-04T15:10:26;21;16;11
44871;PMS7003;30602;51.060;17.226;2023-03-04T15:18:24;16;13;9
44871;PMS7003;30602;51.060;17.226;2023-03-04T15:22:21;40;34;17
44871;PMS7003;30602;51.060;17.226;2023-03-04T15:26:07;16;14;10
44871;PMS7003;30602;51.060;17.226;2023-03-04T15:29:43;21;18;13
44871;PMS7003;30602;51.060;17.226;2023-03-04T15:33:05;17;16;11
44871;PMS7003;30602;51.060;17.226;2023-03-04T15:36:49;23;15;11
44871;PMS7003;30602;51.060;17.226;2023-03-04T15:40:25;16;13;8
44871;PMS7003;30602;51.060;17.226;2023-03-04T15:44:19;21;18;11
44871;PMS7003;30602;51.060;17.226;2023-03-04T15:47:54;16;12;7
44871;PMS7003;30602;51.060;17.226;2023-03-04T15:51:30;17;14;10
44871;PMS7003;30602;51.060;17.226;2023-03-04T15:55:28;20;16;11
44871;PMS7003;30602;51.060;17.226;2023-03-04T15:59:14;20;15;11
44871;PMS7003;30602;51.060;17.226;2023-03-04T16:02:45;68;53;33
44871;PMS7003;30602;51.060;17.226;2023-03-04T16:06:50;28;24;16
44871;PMS7003;30602;51.060;17.226;2023-03-04T16:14:11;30;28;21
44871;PMS7003;30602;51.060;17.226;2023-03-04T16:18:03;26;23;14
44871;PMS7003;30602;51.060;17.226;2023-03-04T16:21:36;24;23;13
44871;PMS7003;30602;51.060;17.226;2023-03-04T16:25:00;20;17;13
44871;PMS7003;30602;51.060;17.226;2023-03-04T16:28:44;16;8;6
44871;PMS7003;30602;51.060;17.226;2023-03-04T16:32:36;17;14;11
44871;PMS7003;30602;51.060;17.226;2023-03-04T16:36:51;22;19;14
44871;PMS7003;30602;51.060;17.226;2023-03-04T16:40:16;16;14;11
44871;PMS7003;30602;51.060;17.226;2023-03-04T16:43:58;16;14;11
44871;PMS7003;30602;51.060;17.226;2023-03-04T16:48:04;13;12;10
44871;PMS7003;30602;51.060;17.226;2023-03-04T16:51:42;16;15;11
44871;PMS7003;30602;51.060;17.226;2023-03-04T16:55:27;26;24;14
44871;PMS7003;30602;51.060;17.226;2023-03-04T16:59:40;16;13;10
44871;PMS7003;30602;51.060;17.226;2023-03-04T17:03:24;17;15;12
44871;PMS7003;30602;51.060;17.226;2023-03-04T17:06:48;26;24;18
44871;PMS7003;30602;51.060;17.226;2023-03-04T17:10:32;21;17;12
44871;PMS7003;30602;51.060;17.226;2023-03-04T17:14:11;12;11;7
44871;PMS7003;30602;51.060;17.226;2023-03-04T17:17:50;29;25;16
44871;PMS7003;30602;51.060;17.226;2023-03-04T17:21:30;26;23;17
44871;PMS7003;30602;51.060;17.226;2023-03-04T17:24:56;21;16;12
44871;PMS7003;30602;51.060;17.226;2023-03-04T17:28:15;14;13;9
44871;PMS7003;30602;51.060;17.226;2023-03-04T17:31:57;14;12;8
44871;PMS7003;30602;51.060;17.226;2023-03-04T17:35:55;17;17;11
44871;PMS7003;30602;51.060;17.226;2023-03-04T17:39:37;19;13;10
44871;PMS7003;30602;51.060;17.226;2023-03-04T17:43:26;24;21;13
44871;PMS7003;30602;51.060;17.226;2023-03-04T17:46:53;22;21;14
44871;PMS7003;30602;51.060;17.226;2023-03-04T17:51:39;19;15;12
44871;PMS7003;30602;51.060;17.226;2023-03-04T17:55:09;25;21;13
44871;PMS7003;30602;51.060;17.226;2023-03-04T17:58:51;26;23;15
44871;PMS7003;30602;51.060;17.226;2023-03-04T18:03:00;20;18;13
44871;PMS7003;30602;51.060;17.226;2023-03-04T18:06:59;29;23;16
44871;PMS7003;30602;51.060;17.226;2023-03-04T18:10:52;31;26;14
44871;PMS7003;30602;51.060;17.226;2023-03-04T18:14:20;67;49;28
44871;PMS7003;30602;51.060;17.226;2023-03-04T18:18:13;18;15;10
44871;PMS7003;30602;51.060;17.226;2023-03-04T18:26:02;21;20;14
44871;PMS7003;30602;51.060;17.226;2023-03-04T18:29:32;19;16;13
44871;PMS7003;30602;51.060;17.226;2023-03-04T18:33:29;19;18;12
44871;PMS7003;30602;51.060;17.226;2023-03-04T18:36:54;22;18;12
44871;PMS7003;30602;51.060;17.226;2023-03-04T18:41:22;35;30;18
44871;PMS7003;30602;51.060;17.226;2023-03-04T18:45:08;20;16;12
44871;PMS7003;30602;51.060;17.226;2023-03-04T18:49:17;20;14;11
44871;PMS7003;30602;51.060;17.226;2023-03-04T19:00:46;31;25;15
44871;PMS7003;30602;51.060;17.226;2023-03-04T19:04:41;19;18;10
44871;PMS7003;30602;51.060;17.226;2023-03-04T19:08:00;18;15;11
44871;PMS7003;30602;51.060;17.226;2023-03-04T19:11:45;19;16;10
44871;PMS7003;30602;51.060;17.226;2023-03-04T19:15:58;17;15;10
44871;PMS7003;30602;51.060;17.226;2023-03-04T19:23:14;16;12;9
44871;PMS7003;30602;51.060;17.226;2023-03-04T19:27:28;14;10;6
44871;PMS7003;30602;51.060;17.226;2023-03-04T19:31:10;10;8;6
44871;PMS7003;30602;51.060;17.226;2023-03-04T19:34:28;10;7;5
44871;PMS7003;30602;51.060;17.226;2023-03-04T19:38:05;7;7;5
44871;PMS7003;30602;51.060;17.226;2023-03-04T19:41:25;11;7;6
44871;PMS7003;30602;51.060;17.226;2023-03-04T19:45:05;3;3;2
44871;PMS7003;30602;51.060;17.226;2023-03-04T19:49:23;5;3;3
44871;PMS7003;30602;51.060;17.226;2023-03-04T19:53:36;9;8;6
44871;PMS7003;30602;51.060;17.226;2023-03-04T19:57:15;7;6;5
44871;PMS7003;30602;51.060;17.226;2023-03-04T20:00:47;13;10;7
44871;PMS7003;30602;51.060;17.226;2023-03-04T20:04:34;12;11;7
44871;PMS7003;30602;51.060;17.226;2023-03-04T20:08:19;7;5;3
44871;PMS7003;30602;51.060;17.226;2023-03-04T20:11:48;7;6;4
44871;PMS7003;30602;51.060;17.226;2023-03-04T20:15:12;7;5;4
44871;PMS7003;30602;51.060;17.226;2023-03-04T20:18:52;5;4;3
44871;PMS7003;30602;51.060;17.226;2023-03-04T20:22:35;5;4;3
44871;PMS7003;30602;51.060;17.226;2023-03-04T20:35:00;5;3;3
44871;PMS7003;30602;51.060;17.226;2023-03-04T20:38:41;10;6;4
44871;PMS7003;30602;51.060;17.226;2023-03-04T20:42:20;12;7;4
44871;PMS7003;30602;51.060;17.226;2023-03-04T20:45:43;6;5;3
44871;PMS7003;30602;51.060;17.226;2023-03-04T20:49:27;5;5;4
44871;PMS7003;30602;51.060;17.226;2023-03-04T20:53:17;8;5;3
44871;PMS7003;30602;51.060;17.226;2023-03-04T20:57:01;5;4;3
44871;PMS7003;30602;51.060;17.226;2023-03-04T21:00:26;5;4;3
44871;PMS7003;30602;51.060;17.226;2023-03-04T21:03:48;7;3;3
44871;PMS7003;30602;51.060;17.226;2023-03-04T21:07:08;8;7;6
44871;PMS7003;30602;51.060;17.226;2023-03-04T21:11:36;12;4;2
44871;PMS7003;30602;51.060;17.226;2023-03-04T21:15:23;6;3;2
44871;PMS7003;30602;51.060;17.226;2023-03-04T21:18:54;3;3;2
44871;PMS7003;30602;51.060;17.226;2023-03-04T21:28:07;8;7;5
44871;PMS7003;30602;51.060;17.226;2023-03-04T21:31:57;7;5;4
44871;PMS7003;30602;51.060;17.226;2023-03-04T21:35:37;24;16;10
44871;PMS7003;30602;51.060;17.226;2023-03-04T21:39:01;31;26;18
44871;PMS7003;30602;51.060;17.226;2023-03-04T21:42:53;28;24;16
44871;PMS7003;30602;51.060;17.226;2023-03-04T21:50:29;10;8;6
44871;PMS7003;30602;51.060;17.226;2023-03-04T21:53:50;10;8;5
44871;PMS7003;30602;51.060;17.226;2023-03-04T21:57:14;9;7;4
44871;PMS7003;30602;51.060;17.226;2023-03-04T22:00:54;6;4;3
44871;PMS7003;30602;51.060;17.226;2023-03-04T22:04:57;6;5;4
44871;PMS7003;30602;51.060;17.226;2023-03-04T22:08:40;8;7;6
44871;PMS7003;30602;51.060;17.226;2023-03-04T22:14:08;11;8;7
44871;PMS7003;30602;51.060;17.226;2023-03-04T22:17:59;10;9;8
44871;PMS7003;30602;51.060;17.226;2023-03-04T22:21:20;11;7;3
44871;PMS7003;30602;51.060;17.226;2023-03-04T22:25:11;10;8;6
44871;PMS7003;30602;51.060;17.226;2023-03-04T22:28:53;15;12;9
44871;PMS7003;30602;51.060;17.226;2023-03-04T22:32:17;9;8;6
44871;PMS7003;30602;51.060;17.226;2023-03-04T22:36:19;11;8;6
44871;PMS7003;30602;51.060;17.226;2023-03-04T22:40:10;12;11;8
44871;PMS7003;30602;51.060;17.226;2023-03-04T22:44:03;13;10;7
44871;PMS7003;30602;51.060;17.226;2023-03-04T22:48:00;14;12;10
44871;PMS7003;30602;51.060;17.226;2023-03-04T22:52:03;14;13;10
44871;PMS7003;30602;51.060;17.226;2023-03-04T22:56:20;12;9;7
44871;PMS7003;30602;51.060;17.226;2023-03-04T22:59:38;9;9;6
44871;PMS7003;30602;51.060;17.226;2023-03-04T23:03:37;7;6;5
44871;PMS7003;30602;51.060;17.226;2023-03-04T23:07:11;8;7;5
44871;PMS7003;30602;51.060;17.226;2023-03-04T23:10:53;8;7;4
44871;PMS7003;30602;51.060;17.226;2023-03-04T23:14:49;10;4;3
44871;PMS7003;30602;51.060;17.226;2023-03-04T23:18:11;9;9;7
44871;PMS7003;30602;51.060;17.226;2023-03-04T23:22:07;15;8;6
44871;PMS7003;30602;51.060;17.226;2023-03-04T23:25:27;6;5;3
44871;PMS7003;30602;51.060;17.226;2023-03-04T23:29:39;6;6;5
44871;PMS7003;30602;51.060;17.226;2023-03-04T23:37:32;4;4;2
44871;PMS7003;30602;51.060;17.226;2023-03-04T23:41:17;6;3;2
44871;PMS7003;30602;51.060;17.226;2023-03-04T23:45:11;3;3;2
44871;PMS7003;30602;51.060;17.226;2023-03-04T23:49:39;6;5;4
44871;PMS7003;30602;51.060;17.226;2023-03-04T23:53:31;7;5;5
